createdAt,value
2023-05-11T16:13:20.867Z,9.88
2023-05-11T16:15:52.480Z,9.88
2023-05-11T16:18:20.253Z,9.47
2023-05-11T16:23:43.221Z,10.16
2023-05-11T16:26:11.040Z,10.16
2023-05-11T16:28:38.452Z,9.89
2023-05-11T16:31:05.865Z,10.09
2023-05-11T16:33:33.596Z,10.18
2023-05-11T16:36:01.274Z,10.21
2023-05-11T16:38:28.674Z,10.07
2023-05-11T16:40:56.602Z,10.23
2023-05-11T16:43:24.048Z,10.14
2023-05-11T16:45:51.909Z,10.03
2023-05-11T16:48:19.987Z,10.06
2023-05-11T16:50:47.711Z,10.06
2023-05-11T16:53:15.336Z,10.14
2023-05-11T16:55:44.261Z,10.16
2023-05-11T16:58:11.770Z,10.19
2023-05-11T17:00:39.213Z,10.28
2023-05-11T17:03:07.160Z,10.45
2023-05-11T17:05:34.693Z,10.38
2023-05-11T17:08:02.067Z,10.21
2023-05-11T17:10:29.864Z,10.17
2023-05-11T17:12:57.898Z,10.10
2023-05-11T17:15:25.204Z,10.15
2023-05-11T17:17:53.437Z,10.16
2023-05-11T17:20:21.419Z,9.98
2023-05-11T17:22:49.437Z,9.98
2023-05-11T17:25:17.355Z,9.91
2023-05-11T17:27:44.693Z,9.88
2023-05-11T17:30:12.734Z,9.82
2023-05-11T17:32:40.896Z,9.81
2023-05-11T17:35:09.418Z,9.82
2023-05-11T17:37:38.066Z,9.82
2023-05-11T17:40:06.571Z,9.83
2023-05-11T17:42:35.054Z,9.75
2023-05-11T17:45:04.002Z,9.78
2023-05-11T17:47:31.863Z,9.87
2023-05-11T17:50:00.441Z,9.84
2023-05-11T17:52:30.572Z,9.79
2023-05-11T17:54:58.324Z,9.96
2023-05-11T17:57:26.672Z,9.96
2023-05-11T17:59:54.194Z,10.05
2023-05-11T18:02:21.962Z,10.16
2023-05-11T18:04:49.656Z,10.14
2023-05-11T18:07:17.254Z,10.05
2023-05-11T18:09:44.772Z,10.05
2023-05-11T18:12:12.831Z,10.08
2023-05-11T18:14:40.275Z,10.12
2023-05-11T18:17:08.119Z,10.22
2023-05-11T18:19:35.873Z,10.13
2023-05-11T18:22:04.552Z,10.08
2023-05-11T18:24:31.932Z,10.24
2023-05-11T18:27:00.448Z,10.07
2023-05-11T18:29:27.858Z,10.13
2023-05-11T18:31:55.342Z,10.13
2023-05-11T18:34:23.326Z,10.13
2023-05-11T18:36:50.968Z,10.20
2023-05-11T18:39:19.539Z,10.07
2023-05-11T18:41:47.392Z,10.04
2023-05-11T18:44:15.334Z,9.84
2023-05-11T18:46:42.881Z,9.68
2023-05-11T18:49:10.863Z,9.86
2023-05-11T18:51:38.287Z,9.91
2023-05-11T18:54:06.503Z,9.96
2023-05-11T18:56:34.372Z,9.83
2023-05-11T18:59:01.811Z,9.78
2023-05-11T19:01:46.136Z,9.79
2023-05-11T19:04:17.917Z,9.90
2023-05-11T19:06:45.359Z,9.96
2023-05-11T19:09:12.745Z,9.88
2023-05-11T19:11:40.472Z,9.87
2023-05-11T19:14:07.947Z,9.89
2023-05-11T19:16:36.038Z,9.73
2023-05-11T19:19:04.119Z,9.83
2023-05-11T19:21:31.822Z,9.78
2023-05-11T19:23:59.261Z,9.86
2023-05-11T19:26:27.100Z,9.74
2023-05-11T19:28:54.590Z,9.83
2023-05-11T19:31:22.952Z,9.69
2023-05-11T19:33:51.133Z,9.57
2023-05-11T19:36:18.779Z,9.47
2023-05-11T19:38:46.408Z,9.42
2023-05-11T19:41:14.181Z,9.41
2023-05-11T19:43:41.572Z,9.34
2023-05-11T19:46:09.704Z,9.21
2023-05-11T19:48:38.446Z,9.20
2023-05-11T19:51:06.312Z,9.15
2023-05-11T19:53:34.042Z,9.06
2023-05-11T19:56:01.712Z,9.05
2023-05-11T19:58:29.252Z,8.98
2023-05-11T20:00:56.724Z,8.95
2023-05-11T20:03:25.764Z,9.04
2023-05-11T20:05:55.643Z,9.02
2023-05-11T20:08:22.901Z,9.03
2023-05-11T20:10:50.894Z,8.97
2023-05-11T20:13:18.376Z,8.91
2023-05-11T20:15:45.899Z,8.95
2023-05-11T20:18:13.645Z,8.85
2023-05-11T20:20:41.301Z,8.83
2023-05-11T20:23:09.869Z,8.82
2023-05-11T20:25:43.882Z,8.83
2023-05-11T20:28:12.211Z,8.73
2023-05-11T20:30:39.932Z,8.71
2023-05-11T20:35:37.899Z,8.58
2023-05-11T20:38:06.171Z,8.65
2023-05-11T20:40:33.586Z,8.63
2023-05-11T20:43:00.980Z,8.50
2023-05-11T20:45:28.766Z,8.56
2023-05-11T20:47:57.425Z,8.49
2023-05-11T20:50:24.929Z,8.44
2023-05-11T20:52:52.953Z,8.42
2023-05-11T20:55:20.607Z,8.40
2023-05-11T20:57:48.327Z,8.34
2023-05-11T21:00:16.433Z,8.37
2023-05-11T21:02:44.791Z,8.34
2023-05-11T21:05:12.129Z,8.13
2023-05-11T21:07:39.976Z,8.15
2023-05-11T21:10:07.973Z,8.23
2023-05-11T21:12:35.275Z,8.22
2023-05-11T21:15:03.034Z,8.17
2023-05-11T21:17:30.384Z,8.27
2023-05-11T21:19:57.724Z,8.14
2023-05-11T21:22:25.326Z,8.07
2023-05-11T21:24:52.691Z,8.02
2023-05-11T21:27:19.925Z,8.07
2023-05-11T21:29:48.387Z,8.10
2023-05-11T21:32:15.692Z,8.08
2023-05-11T21:34:43.978Z,8.01
2023-05-11T21:37:14.806Z,8.01
2023-05-11T21:39:42.376Z,7.99
2023-05-11T21:42:10.049Z,7.98
2023-05-11T21:44:37.754Z,7.84
2023-05-11T21:47:05.519Z,7.85
2023-05-11T21:49:33.465Z,7.80
2023-05-11T21:52:01.284Z,7.85
2023-05-11T21:54:28.566Z,7.79
2023-05-11T21:56:55.924Z,7.70
2023-05-11T21:59:26.977Z,7.71
2023-05-11T22:01:56.949Z,7.65
2023-05-11T22:04:25.480Z,7.67
2023-05-11T22:06:53.005Z,7.75
2023-05-11T22:09:20.351Z,7.70
2023-05-11T22:11:48.060Z,7.67
2023-05-11T22:14:15.558Z,7.71
2023-05-11T22:16:43.677Z,7.54
2023-05-11T22:19:11.345Z,7.61
2023-05-11T22:21:38.612Z,7.62
2023-05-11T22:24:06.505Z,7.55
2023-05-11T22:26:34.358Z,7.48
2023-05-11T22:29:01.682Z,7.56
2023-05-11T22:31:29.038Z,7.48
2023-05-11T22:33:56.973Z,7.54
2023-05-11T22:36:24.345Z,7.59
2023-05-11T22:38:51.690Z,7.45
2023-05-11T22:41:19.411Z,7.52
2023-05-11T22:43:48.054Z,7.51
2023-05-11T22:46:15.397Z,7.42
2023-05-11T22:48:43.281Z,7.51
2023-05-11T22:51:10.542Z,7.49
2023-05-11T22:53:37.925Z,7.48
2023-05-11T22:56:09.409Z,7.45
2023-05-11T22:58:37.066Z,7.48
2023-05-11T23:01:04.526Z,7.42
2023-05-11T23:03:32.346Z,7.40
2023-05-11T23:05:59.746Z,7.42
2023-05-11T23:08:27.243Z,7.43
2023-05-11T23:10:54.895Z,7.33
2023-05-11T23:13:22.676Z,7.16
2023-05-11T23:15:50.575Z,7.22
2023-05-11T23:18:18.329Z,7.12
2023-05-11T23:20:45.824Z,7.10
2023-05-11T23:23:13.598Z,7.05
2023-05-11T23:25:41.422Z,7.10
2023-05-11T23:28:11.731Z,7.00
2023-05-11T23:30:39.260Z,6.93
2023-05-11T23:33:07.211Z,7.00
2023-05-11T23:35:34.706Z,7.02
2023-05-11T23:38:02.049Z,7.04
2023-05-11T23:40:29.972Z,6.98
2023-05-11T23:42:57.486Z,6.98
2023-05-11T23:45:26.017Z,7.04
2023-05-11T23:47:54.139Z,6.99
2023-05-11T23:50:21.783Z,6.91
2023-05-11T23:52:49.841Z,6.91
2023-05-11T23:55:17.512Z,6.88
2023-05-11T23:57:45.152Z,6.89
